• Join FlightAware (Why Join?)
  • Login
  • US Flag 
05:32PM EDT


 

Airport Tracker/Info


-or-


 

Live Flight TrackerFlight Track Log ✈ CHQ6086 ✈ 04-Aug-2012 ✈ KMEM - KCMH

Flight Track Log - Related Links

Times and Time Zones

All times are in EDT time to prevent confusion due to time zone crossing. See the CHQ6086 flight status page for this flight to view local times or setup timezone preferences in your user account.

Time Position Orientation Groundspeed Altitude Reporting Facility
EDT Latitude Longitude Course Direction KTS MPH feet Rate Location/Type
10:47AM 35.0167 -89.9833 135° Southeast 170 196 900  Level Anchorage Center
10:50AM 34.9333 -89.8833 66° East 276 318 4,500 1,860 Climbing Anchorage Center
10:52AM 35.0000 -89.7000 60° Northeast 294 338 8,900 2,040 Climbing Anchorage Center
10:53AM 35.0447 -89.6064 64° Northeast 345 397 10,600 1,620 Climbing Memphis Center
10:54AM 35.0817 -89.5147 63° Northeast 304 350 12,200 1,620 Climbing Memphis Center
10:55AM 35.1247 -89.4128 63° Northeast 304 350 13,900 1,620 Climbing Memphis Center
10:56AM 35.1636 -89.3183 63° Northeast 304 350 15,500 1,500 Climbing Memphis Center
10:57AM 35.2044 -89.2211 53° Northeast 309 356 16,900 1,380 Climbing Memphis Center
10:58AM 35.2578 -89.1339 51° Northeast 309 356 18,300 1,320 Climbing Memphis Center
10:59AM 35.3153 -89.0467 49° Northeast 315 362 19,600 1,260 Climbing Memphis Center
11:00AM 35.3750 -88.9617 49° Northeast 322 371 20,900 1,320 Climbing Memphis Center
11:01AM 35.4364 -88.8764 53° Northeast 322 371 22,300 1,260 Climbing Memphis Center
11:02AM 35.4897 -88.7889 51° Northeast 327 376 23,500 1,200 Climbing Memphis Center
11:03AM 35.5469 -88.7011 51° Northeast 327 376 24,700 1,080 Climbing Memphis Center
11:04AM 35.6042 -88.6131 52° Northeast 327 376 25,700 900 Climbing Memphis Center
11:05AM 35.6633 -88.5197 53° Northeast 334 384 26,600 600 Climbing Memphis Center
11:06AM 35.7222 -88.4239 52° Northeast 342 394 27,000 420 Climbing Memphis Center
11:07AM 35.7872 -88.3200 54° Northeast 359 413 27,500 960 Climbing Memphis Center
11:08AM 35.8481 -88.2161 51° Northeast 371 427 29,000 1,380 Climbing Memphis Center
11:09AM 35.9008 -88.1353 55° Northeast 366 421 30,300 1,380 Climbing Memphis Center
11:10AM 35.9556 -88.0389 53° Northeast 346 398 31,800 1,140 Climbing Memphis Center
11:11AM 36.0122 -87.9475 51° Northeast 341 392 32,600 840 Climbing Memphis Center
11:12AM 36.0728 -87.8533 50° Northeast 341 392 33,500 900 Climbing Memphis Center
11:13AM 36.1314 -87.7667 54° Northeast 341 392 34,400 720 Climbing Memphis Center
11:14AM 36.1939 -87.6617 52° Northeast 341 392 35,000 300 Climbing Memphis Center
11:15AM 36.2564 -87.5619 53° Northeast 352 405 35,000  Level Memphis Center
11:16AM 36.3206 -87.4567 51° Northeast 374 430 35,000  Level Memphis Center
11:17AM 36.3908 -87.3483 53° Northeast 388 447 35,000  Level Memphis Center
11:18AM 36.4592 -87.2375 55° Northeast 400 460 35,000  Level Memphis Center
11:19AM 36.5250 -87.1214 52° Northeast 400 460 35,000  Level Memphis Center
11:20AM 36.5889 -87.0206 53° Northeast 400 460 35,000  Level Memphis Center
11:21AM 36.6567 -86.9067 54° Northeast 400 460 35,000  Level Memphis Center
11:22AM 36.7222 -86.7950 44° Northeast 400 460 35,000  Level Memphis Center
11:27AM 37.1372 -86.2900 29° Northeast 385 443 35,000  Level Indianapolis Center
11:28AM 37.2283 -86.2253 30° Northeast 385 443 35,000  Level Indianapolis Center
11:29AM 37.3217 -86.1583 30° Northeast 380 437 35,000  Level Indianapolis Center
11:30AM 37.4211 -86.0858 29° Northeast 380 437 35,000  Level Indianapolis Center
11:31AM 37.5122 -86.0208 33° Northeast 380 437 35,000  Level Indianapolis Center
11:32AM 37.5992 -85.9503 20° North 374 430 35,000 -300 Level Indianapolis Center
11:33AM 37.6983 -85.9036 North 374 430 34,500 -540 Descending Indianapolis Center
11:34AM 37.8050 -85.8833 North 374 430 34,000 -600 Descending Indianapolis Center
11:35AM 37.9097 -85.8631 North 381 438 33,300 -900 Descending Indianapolis Center
11:36AM 38.0186 -85.8453 North 387 445 32,300 -1,080 Descending Indianapolis Center
11:37AM 38.1294 -85.8250 28° Northeast 393 452 31,200 -600 Descending Indianapolis Center
11:42AM 38.5897 -85.5100 57° Northeast 392 451 29,000 -420 Descending Indianapolis Center
11:43AM 38.6503 -85.3919 56° Northeast 405 466 29,000 -300 Level Indianapolis Center
11:44AM 38.7144 -85.2683 56° Northeast 405 466 28,500 -780 Descending Indianapolis Center
11:45AM 38.7789 -85.1447 56° Northeast 410 472 27,500 -1,140 Descending Indianapolis Center
11:46AM 38.8431 -85.0233 56° Northeast 410 472 26,300 -1,320 Descending Indianapolis Center
11:47AM 38.9092 -84.8967 55° Northeast 410 472 24,900 -1,200 Descending Indianapolis Center
11:48AM 38.9731 -84.7803 54° Northeast 403 464 23,900 -480 Descending Indianapolis Center
11:49AM 39.0389 -84.6639 55° Northeast 398 458 24,000 -300 Climbing Indianapolis Center
11:50AM 39.1044 -84.5444 54° Northeast 403 464 23,300 -900 Descending Indianapolis Center
11:51AM 39.1722 -84.4222 54° Northeast 408 470 22,200 -1,080 Descending Indianapolis Center
11:52AM 39.2314 -84.3156 55° Northeast 408 470 21,200 -1,080 Descending Indianapolis Center
11:53AM 39.2986 -84.1931 62° Northeast 408 470 20,100 -1,200 Descending Indianapolis Center
11:54AM 39.3514 -84.0644 64° Northeast 408 470 18,900 -1,200 Descending Indianapolis Center
11:55AM 39.4000 -83.9331 64° Northeast 403 464 17,800 -1,140 Descending Indianapolis Center
11:56AM 39.4483 -83.8044 65° Northeast 403 464 16,700 -1,380 Descending Indianapolis Center
11:57AM 39.4942 -83.6753 64° Northeast 403 464 15,100 -2,040 Descending Indianapolis Center
11:58AM 39.5403 -83.5544 64° Northeast 383 441 12,700 -2,100 Descending Indianapolis Center
11:59AM 39.5839 -83.4383 42° Northeast 361 415 11,000 -1,440 Descending Indianapolis Center
11:59AM 39.6089 -83.4089 27° Northeast 360 414 10,900 -1,020 Descending Indianapolis Center
12:00PM 39.6611 -83.3736 25° Northeast 328 377 10,000 -1,500 Descending Indianapolis Center
12:01PM 39.7361 -83.3275 25° Northeast 303 349 8,400 -1,740 Descending Indianapolis Center
12:02PM 39.8108 -83.2814 19° North 296 341 6,600 -1,800 Descending Indianapolis Center
12:03PM 39.8464 -83.2650 27° Northeast 289 333 5,900 -1,500 Descending Indianapolis Center
12:03PM 39.8839 -83.2406 22° Northeast 290 334 5,100 -1,200 Descending Indianapolis Center
12:04PM 39.9669 -83.1967 59° Northeast 256 295 3,900 -960 Descending Indianapolis Center
12:05PM 39.9919 -83.1425 53° Northeast 233 268 3,200 -840 Descending Indianapolis Center
12:05PM 40.0044 -83.1206 77° East 235 270 3,000 -300 Descending Indianapolis Center
12:06PM 40.0144 -83.0636 112° Southeast 220 253 2,900 -240 Descending Indianapolis Center
12:06PM 40.0103 -83.0503 93° East 184 212 2,800 -840 Descending Indianapolis Center
12:07PM 40.0081 -82.9986 93° East 189 217 2,100 -840 Descending Indianapolis Center
12:08PM 40.0056 -82.9419 100° East 174 200 1,400 -780 Descending Indianapolis Center
12:08PM 40.0033 -82.9256 187° South 151 174 1,100 180 Descending Indianapolis Center
12:09PM 39.9492 -82.9342 187° South 166 191 1,600 720 Climbing Indianapolis Center